sensor_id;sensor_type;location;lat;lon;timestamp;temperature;humidity
23073;DHT22;67971;51.046;3.732;2023-07-22T00:00:28;18.80;99.90
23073;DHT22;67971;51.046;3.732;2023-07-22T00:02:54;18.70;99.90
23073;DHT22;67971;51.046;3.732;2023-07-22T00:05:19;18.50;99.90
23073;DHT22;67971;51.046;3.732;2023-07-22T00:07:49;18.40;99.90
23073;DHT22;67971;51.046;3.732;2023-07-22T00:10:15;18.50;99.90
23073;DHT22;67971;51.046;3.732;2023-07-22T00:12:41;18.50;99.90
23073;DHT22;67971;51.046;3.732;2023-07-22T00:15:07;18.50;99.90
23073;DHT22;67971;51.046;3.732;2023-07-22T00:17:33;18.40;99.90
23073;DHT22;67971;51.046;3.732;2023-07-22T00:19:59;18.30;99.90
23073;DHT22;67971;51.046;3.732;2023-07-22T00:22:25;18.20;99.90
23073;DHT22;67971;51.046;3.732;2023-07-22T00:24:52;18.10;99.90
23073;DHT22;67971;51.046;3.732;2023-07-22T00:27:18;18.10;99.90
23073;DHT22;67971;51.046;3.732;2023-07-22T00:29:43;18.10;99.90
23073;DHT22;67971;51.046;3.732;2023-07-22T00:32:09;18.10;99.90
23073;DHT22;67971;51.046;3.732;2023-07-22T00:34:35;18.00;99.90
23073;DHT22;67971;51.046;3.732;2023-07-22T00:37:02;17.90;99.90
23073;DHT22;67971;51.046;3.732;2023-07-22T00:39:27;18.00;99.90
23073;DHT22;67971;51.046;3.732;2023-07-22T00:41:53;18.20;99.90
23073;DHT22;67971;51.046;3.732;2023-07-22T00:44:19;18.10;99.90
23073;DHT22;67971;51.046;3.732;2023-07-22T00:46:44;18.10;99.90
23073;DHT22;67971;51.046;3.732;2023-07-22T00:49:11;18.00;99.90
23073;DHT22;67971;51.046;3.732;2023-07-22T00:51:38;18.00;99.90
23073;DHT22;67971;51.046;3.732;2023-07-22T00:54:03;17.90;99.90
23073;DHT22;67971;51.046;3.732;2023-07-22T00:56:33;18.00;99.90
23073;DHT22;67971;51.046;3.732;2023-07-22T00:59:01;18.10;99.90
23073;DHT22;67971;51.046;3.732;2023-07-22T01:01:27;18.10;99.90
23073;DHT22;67971;51.046;3.732;2023-07-22T01:03:53;18.20;99.90
23073;DHT22;67971;51.046;3.732;2023-07-22T01:06:19;18.30;99.90
23073;DHT22;67971;51.046;3.732;2023-07-22T01:08:45;18.10;99.90
23073;DHT22;67971;51.046;3.732;2023-07-22T01:11:12;18.10;99.90
23073;DHT22;67971;51.046;3.732;2023-07-22T01:13:38;18.10;99.90
23073;DHT22;67971;51.046;3.732;2023-07-22T01:16:05;18.00;99.90
23073;DHT22;67971;51.046;3.732;2023-07-22T01:18:33;17.80;99.90
23073;DHT22;67971;51.046;3.732;2023-07-22T01:20:59;17.90;99.90
23073;DHT22;67971;51.046;3.732;2023-07-22T01:23:24;18.00;99.90
23073;DHT22;67971;51.046;3.732;2023-07-22T01:25:50;18.00;99.90
23073;DHT22;67971;51.046;3.732;2023-07-22T01:28:17;18.00;99.90
23073;DHT22;67971;51.046;3.732;2023-07-22T01:30:42;17.90;99.90
23073;DHT22;67971;51.046;3.732;2023-07-22T01:33:08;18.00;99.90
23073;DHT22;67971;51.046;3.732;2023-07-22T01:35:34;17.90;99.90
23073;DHT22;67971;51.046;3.732;2023-07-22T01:37:59;17.90;99.90
23073;DHT22;67971;51.046;3.732;2023-07-22T01:40:25;18.00;99.90
23073;DHT22;67971;51.046;3.732;2023-07-22T01:42:51;18.00;99.90
23073;DHT22;67971;51.046;3.732;2023-07-22T01:45:16;18.10;99.90
23073;DHT22;67971;51.046;3.732;2023-07-22T01:47:42;18.20;99.90
23073;DHT22;67971;51.046;3.732;2023-07-22T01:50:08;18.40;99.90
23073;DHT22;67971;51.046;3.732;2023-07-22T01:52:35;18.40;99.90
23073;DHT22;67971;51.046;3.732;2023-07-22T01:55:01;18.30;99.90
23073;DHT22;67971;51.046;3.732;2023-07-22T01:57:31;18.30;99.90
23073;DHT22;67971;51.046;3.732;2023-07-22T01:59:56;18.20;99.90
23073;DHT22;67971;51.046;3.732;2023-07-22T02:02:22;18.10;99.90
23073;DHT22;67971;51.046;3.732;2023-07-22T02:04:48;18.10;99.90
23073;DHT22;67971;51.046;3.732;2023-07-22T02:07:13;18.10;99.90
23073;DHT22;67971;51.046;3.732;2023-07-22T02:09:40;18.00;99.90
23073;DHT22;67971;51.046;3.732;2023-07-22T02:12:07;17.90;99.90
23073;DHT22;67971;51.046;3.732;2023-07-22T02:14:33;17.90;99.90
23073;DHT22;67971;51.046;3.732;2023-07-22T02:16:58;18.00;99.90
23073;DHT22;67971;51.046;3.732;2023-07-22T02:19:24;17.90;99.90
23073;DHT22;67971;51.046;3.732;2023-07-22T02:21:50;17.90;99.90
23073;DHT22;67971;51.046;3.732;2023-07-22T02:24:16;17.70;99.90
23073;DHT22;67971;51.046;3.732;2023-07-22T02:26:41;17.60;99.90
23073;DHT22;67971;51.046;3.732;2023-07-22T02:29:07;17.40;99.90
23073;DHT22;67971;51.046;3.732;2023-07-22T02:31:33;17.50;99.90
23073;DHT22;67971;51.046;3.732;2023-07-22T02:33:59;17.60;99.90
23073;DHT22;67971;51.046;3.732;2023-07-22T02:36:25;17.60;99.90
23073;DHT22;67971;51.046;3.732;2023-07-22T02:38:50;17.60;99.90
23073;DHT22;67971;51.046;3.732;2023-07-22T02:41:16;17.60;99.90
23073;DHT22;67971;51.046;3.732;2023-07-22T02:43:41;17.60;99.90
23073;DHT22;67971;51.046;3.732;2023-07-22T02:46:07;17.70;99.90
23073;DHT22;67971;51.046;3.732;2023-07-22T02:48:36;17.40;99.90
23073;DHT22;67971;51.046;3.732;2023-07-22T02:51:07;17.40;99.90
23073;DHT22;67971;51.046;3.732;2023-07-22T02:53:33;17.50;99.90
23073;DHT22;67971;51.046;3.732;2023-07-22T02:56:00;17.60;99.90
23073;DHT22;67971;51.046;3.732;2023-07-22T02:58:26;17.60;99.90
23073;DHT22;67971;51.046;3.732;2023-07-22T03:00:51;17.60;99.90
23073;DHT22;67971;51.046;3.732;2023-07-22T03:03:17;17.60;99.90
23073;DHT22;67971;51.046;3.732;2023-07-22T03:05:45;17.40;99.90
23073;DHT22;67971;51.046;3.732;2023-07-22T03:08:10;17.30;99.90
23073;DHT22;67971;51.046;3.732;2023-07-22T03:10:36;17.30;99.90
23073;DHT22;67971;51.046;3.732;2023-07-22T03:13:02;17.40;99.90
23073;DHT22;67971;51.046;3.732;2023-07-22T03:15:29;17.40;99.90
23073;DHT22;67971;51.046;3.732;2023-07-22T03:17:55;17.30;99.90
23073;DHT22;67971;51.046;3.732;2023-07-22T03:20:21;17.30;99.90
23073;DHT22;67971;51.046;3.732;2023-07-22T03:22:48;17.30;99.90
23073;DHT22;67971;51.046;3.732;2023-07-22T03:25:15;17.30;99.90
23073;DHT22;67971;51.046;3.732;2023-07-22T03:27:43;17.30;99.90
23073;DHT22;67971;51.046;3.732;2023-07-22T03:30:14;17.20;99.90
23073;DHT22;67971;51.046;3.732;2023-07-22T03:32:41;17.20;99.90
23073;DHT22;67971;51.046;3.732;2023-07-22T03:35:08;17.20;99.90
23073;DHT22;67971;51.046;3.732;2023-07-22T03:37:37;17.20;99.90
23073;DHT22;67971;51.046;3.732;2023-07-22T03:40:04;17.20;99.90
23073;DHT22;67971;51.046;3.732;2023-07-22T03:42:52;17.20;99.90
23073;DHT22;67971;51.046;3.732;2023-07-22T03:45:19;17.10;99.90
23073;DHT22;67971;51.046;3.732;2023-07-22T03:47:46;17.10;99.90
23073;DHT22;67971;51.046;3.732;2023-07-22T03:50:12;17.10;99.90
23073;DHT22;67971;51.046;3.732;2023-07-22T03:52:38;17.10;99.90
23073;DHT22;67971;51.046;3.732;2023-07-22T03:55:04;17.00;99.90
23073;DHT22;67971;51.046;3.732;2023-07-22T03:57:31;16.90;99.90
23073;DHT22;67971;51.046;3.732;2023-07-22T03:59:57;16.90;99.90
23073;DHT22;67971;51.046;3.732;2023-07-22T04:02:23;17.00;99.90
23073;DHT22;67971;51.046;3.732;2023-07-22T04:04:51;17.10;99.90
23073;DHT22;67971;51.046;3.732;2023-07-22T04:07:16;17.00;99.90
23073;DHT22;67971;51.046;3.732;2023-07-22T04:09:42;17.00;99.90
23073;DHT22;67971;51.046;3.732;2023-07-22T04:12:08;16.80;99.90
23073;DHT22;67971;51.046;3.732;2023-07-22T04:14:34;16.70;99.90
23073;DHT22;67971;51.046;3.732;2023-07-22T04:16:59;16.70;99.90
23073;DHT22;67971;51.046;3.732;2023-07-22T04:19:25;16.60;99.90
23073;DHT22;67971;51.046;3.732;2023-07-22T04:21:51;16.50;99.90
23073;DHT22;67971;51.046;3.732;2023-07-22T04:24:16;16.40;99.90
23073;DHT22;67971;51.046;3.732;2023-07-22T04:26:45;16.50;99.90
23073;DHT22;67971;51.046;3.732;2023-07-22T04:29:11;16.60;99.90
23073;DHT22;67971;51.046;3.732;2023-07-22T04:31:38;16.50;99.90
23073;DHT22;67971;51.046;3.732;2023-07-22T04:34:03;16.40;99.90
23073;DHT22;67971;51.046;3.732;2023-07-22T04:36:30;16.30;99.90
23073;DHT22;67971;51.046;3.732;2023-07-22T04:38:56;16.30;99.90
23073;DHT22;67971;51.046;3.732;2023-07-22T04:41:22;16.30;99.90
23073;DHT22;67971;51.046;3.732;2023-07-22T04:43:47;16.30;99.90
23073;DHT22;67971;51.046;3.732;2023-07-22T04:46:13;16.10;99.90
23073;DHT22;67971;51.046;3.732;2023-07-22T04:48:39;16.20;99.90
23073;DHT22;67971;51.046;3.732;2023-07-22T04:51:04;16.30;99.90
23073;DHT22;67971;51.046;3.732;2023-07-22T04:53:30;16.20;99.90
23073;DHT22;67971;51.046;3.732;2023-07-22T04:55:55;16.30;99.90
23073;DHT22;67971;51.046;3.732;2023-07-22T04:58:21;16.30;99.90
23073;DHT22;67971;51.046;3.732;2023-07-22T05:00:47;16.30;99.90
23073;DHT22;67971;51.046;3.732;2023-07-22T05:03:14;16.20;99.90
23073;DHT22;67971;51.046;3.732;2023-07-22T05:05:40;16.30;99.90
23073;DHT22;67971;51.046;3.732;2023-07-22T05:08:05;16.30;99.90
23073;DHT22;67971;51.046;3.732;2023-07-22T05:10:33;16.30;99.90
23073;DHT22;67971;51.046;3.732;2023-07-22T05:12:59;16.40;99.90
23073;DHT22;67971;51.046;3.732;2023-07-22T05:15:24;16.40;99.90
23073;DHT22;67971;51.046;3.732;2023-07-22T05:17:50;16.60;99.90
23073;DHT22;67971;51.046;3.732;2023-07-22T05:20:16;16.70;99.90
23073;DHT22;67971;51.046;3.732;2023-07-22T05:22:42;16.70;99.90
23073;DHT22;67971;51.046;3.732;2023-07-22T05:25:08;16.70;99.90
23073;DHT22;67971;51.046;3.732;2023-07-22T05:27:35;16.90;99.90
23073;DHT22;67971;51.046;3.732;2023-07-22T05:30:01;17.10;99.90
23073;DHT22;67971;51.046;3.732;2023-07-22T05:32:30;17.10;99.90
23073;DHT22;67971;51.046;3.732;2023-07-22T05:34:56;17.10;99.90
23073;DHT22;67971;51.046;3.732;2023-07-22T05:37:22;17.20;99.90
23073;DHT22;67971;51.046;3.732;2023-07-22T05:39:48;17.20;99.90
23073;DHT22;67971;51.046;3.732;2023-07-22T05:42:14;17.30;99.90
23073;DHT22;67971;51.046;3.732;2023-07-22T05:44:39;17.30;99.90
23073;DHT22;67971;51.046;3.732;2023-07-22T05:47:05;17.40;99.90
23073;DHT22;67971;51.046;3.732;2023-07-22T05:49:31;17.40;99.90
23073;DHT22;67971;51.046;3.732;2023-07-22T05:51:57;17.50;99.90
23073;DHT22;67971;51.046;3.732;2023-07-22T05:54:22;17.40;99.90
23073;DHT22;67971;51.046;3.732;2023-07-22T05:56:48;17.40;99.90
23073;DHT22;67971;51.046;3.732;2023-07-22T05:59:13;17.50;99.90
23073;DHT22;67971;51.046;3.732;2023-07-22T06:01:39;17.60;99.90
23073;DHT22;67971;51.046;3.732;2023-07-22T06:04:06;17.80;99.90
23073;DHT22;67971;51.046;3.732;2023-07-22T06:06:31;17.90;99.90
23073;DHT22;67971;51.046;3.732;2023-07-22T06:08:57;18.00;99.90
23073;DHT22;67971;51.046;3.732;2023-07-22T06:11:23;18.10;99.90
23073;DHT22;67971;51.046;3.732;2023-07-22T06:13:48;18.10;99.90
23073;DHT22;67971;51.046;3.732;2023-07-22T06:16:14;18.00;99.90
23073;DHT22;67971;51.046;3.732;2023-07-22T06:18:40;18.30;99.90
23073;DHT22;67971;51.046;3.732;2023-07-22T06:21:05;18.30;99.90
23073;DHT22;67971;51.046;3.732;2023-07-22T06:23:31;18.30;99.90
23073;DHT22;67971;51.046;3.732;2023-07-22T06:25:57;18.10;99.90
23073;DHT22;67971;51.046;3.732;2023-07-22T06:28:22;18.20;99.90
23073;DHT22;67971;51.046;3.732;2023-07-22T06:30:48;18.20;99.90
23073;DHT22;67971;51.046;3.732;2023-07-22T06:33:13;18.10;99.90
23073;DHT22;67971;51.046;3.732;2023-07-22T06:35:39;18.10;99.90
23073;DHT22;67971;51.046;3.732;2023-07-22T06:38:05;18.20;99.90
23073;DHT22;67971;51.046;3.732;2023-07-22T06:40:30;18.20;99.90
23073;DHT22;67971;51.046;3.732;2023-07-22T06:42:56;18.30;99.90
23073;DHT22;67971;51.046;3.732;2023-07-22T06:45:21;18.50;99.90
23073;DHT22;67971;51.046;3.732;2023-07-22T06:47:47;18.70;99.90
23073;DHT22;67971;51.046;3.732;2023-07-22T06:50:13;19.00;99.90
23073;DHT22;67971;51.046;3.732;2023-07-22T06:52:38;19.10;99.90
23073;DHT22;67971;51.046;3.732;2023-07-22T06:55:04;19.10;99.90
23073;DHT22;67971;51.046;3.732;2023-07-22T06:57:30;19.30;99.90
23073;DHT22;67971;51.046;3.732;2023-07-22T06:59:57;19.30;99.90
23073;DHT22;67971;51.046;3.732;2023-07-22T07:02:23;19.30;99.90
23073;DHT22;67971;51.046;3.732;2023-07-22T07:04:49;19.40;99.90
23073;DHT22;67971;51.046;3.732;2023-07-22T07:07:15;19.40;99.90
23073;DHT22;67971;51.046;3.732;2023-07-22T07:09:41;19.50;99.90
23073;DHT22;67971;51.046;3.732;2023-07-22T07:12:08;19.40;99.90
23073;DHT22;67971;51.046;3.732;2023-07-22T07:14:34;19.30;99.90
23073;DHT22;67971;51.046;3.732;2023-07-22T07:17:00;19.40;99.90
23073;DHT22;67971;51.046;3.732;2023-07-22T07:19:27;19.40;99.90
23073;DHT22;67971;51.046;3.732;2023-07-22T07:21:53;19.70;99.90
23073;DHT22;67971;51.046;3.732;2023-07-22T07:24:19;20.00;99.90
23073;DHT22;67971;51.046;3.732;2023-07-22T07:26:45;19.90;99.90
23073;DHT22;67971;51.046;3.732;2023-07-22T07:29:10;19.80;99.90
23073;DHT22;67971;51.046;3.732;2023-07-22T07:31:37;19.90;99.90
23073;DHT22;67971;51.046;3.732;2023-07-22T07:34:03;20.00;99.90
23073;DHT22;67971;51.046;3.732;2023-07-22T07:36:29;20.40;99.90
23073;DHT22;67971;51.046;3.732;2023-07-22T07:38:55;20.50;99.90
23073;DHT22;67971;51.046;3.732;2023-07-22T07:41:21;20.40;99.90
23073;DHT22;67971;51.046;3.732;2023-07-22T07:43:46;20.20;99.90
23073;DHT22;67971;51.046;3.732;2023-07-22T07:46:27;20.00;99.90
23073;DHT22;67971;51.046;3.732;2023-07-22T07:48:57;20.10;99.90
23073;DHT22;67971;51.046;3.732;2023-07-22T07:51:25;20.10;99.90
23073;DHT22;67971;51.046;3.732;2023-07-22T07:53:55;20.10;99.90
23073;DHT22;67971;51.046;3.732;2023-07-22T07:56:21;20.30;99.90
23073;DHT22;67971;51.046;3.732;2023-07-22T07:58:48;20.40;99.90
23073;DHT22;67971;51.046;3.732;2023-07-22T08:01:15;20.60;99.90
23073;DHT22;67971;51.046;3.732;2023-07-22T08:03:41;20.70;99.90
23073;DHT22;67971;51.046;3.732;2023-07-22T08:06:08;20.70;99.90
23073;DHT22;67971;51.046;3.732;2023-07-22T08:08:34;20.90;99.90
23073;DHT22;67971;51.046;3.732;2023-07-22T08:11:06;21.10;99.90
23073;DHT22;67971;51.046;3.732;2023-07-22T08:13:33;21.20;99.90
23073;DHT22;67971;51.046;3.732;2023-07-22T08:16:03;21.50;99.90
23073;DHT22;67971;51.046;3.732;2023-07-22T08:18:33;21.70;99.90
23073;DHT22;67971;51.046;3.732;2023-07-22T08:21:00;21.70;99.90
23073;DHT22;67971;51.046;3.732;2023-07-22T08:23:26;22.10;99.90
23073;DHT22;67971;51.046;3.732;2023-07-22T08:25:52;22.40;99.90
23073;DHT22;67971;51.046;3.732;2023-07-22T08:28:17;22.20;99.90
23073;DHT22;67971;51.046;3.732;2023-07-22T08:30:43;22.20;99.90
23073;DHT22;67971;51.046;3.732;2023-07-22T08:33:11;22.20;99.90
23073;DHT22;67971;51.046;3.732;2023-07-22T08:35:37;22.00;99.90
23073;DHT22;67971;51.046;3.732;2023-07-22T08:38:03;22.50;99.90
23073;DHT22;67971;51.046;3.732;2023-07-22T08:40:36;23.10;99.90
23073;DHT22;67971;51.046;3.732;2023-07-22T08:43:06;23.50;99.90
23073;DHT22;67971;51.046;3.732;2023-07-22T08:45:33;24.00;99.90
23073;DHT22;67971;51.046;3.732;2023-07-22T08:48:12;23.70;99.90
23073;DHT22;67971;51.046;3.732;2023-07-22T08:50:45;24.30;99.90
23073;DHT22;67971;51.046;3.732;2023-07-22T08:53:14;25.50;99.90
23073;DHT22;67971;51.046;3.732;2023-07-22T08:55:41;25.70;99.90
23073;DHT22;67971;51.046;3.732;2023-07-22T08:58:10;25.70;99.90
23073;DHT22;67971;51.046;3.732;2023-07-22T09:00:38;26.20;99.90
23073;DHT22;67971;51.046;3.732;2023-07-22T09:03:04;26.80;99.90
23073;DHT22;67971;51.046;3.732;2023-07-22T09:05:34;26.10;99.90
23073;DHT22;67971;51.046;3.732;2023-07-22T09:08:05;25.30;99.90
23073;DHT22;67971;51.046;3.732;2023-07-22T09:10:32;24.70;99.90
23073;DHT22;67971;51.046;3.732;2023-07-22T09:12:59;24.10;99.90
23073;DHT22;67971;51.046;3.732;2023-07-22T09:15:25;23.80;99.90
23073;DHT22;67971;51.046;3.732;2023-07-22T09:17:51;23.80;99.90
23073;DHT22;67971;51.046;3.732;2023-07-22T09:20:17;23.40;99.90
23073;DHT22;67971;51.046;3.732;2023-07-22T09:22:46;23.30;99.90
23073;DHT22;67971;51.046;3.732;2023-07-22T09:25:20;23.20;99.90
23073;DHT22;67971;51.046;3.732;2023-07-22T09:27:47;23.30;99.90
23073;DHT22;67971;51.046;3.732;2023-07-22T09:32:59;22.40;99.90
23073;DHT22;67971;51.046;3.732;2023-07-22T09:35:30;22.10;99.90
23073;DHT22;67971;51.046;3.732;2023-07-22T09:37:56;22.00;99.90
23073;DHT22;67971;51.046;3.732;2023-07-22T09:40:27;22.50;99.90
23073;DHT22;67971;51.046;3.732;2023-07-22T09:43:01;23.20;99.90
23073;DHT22;67971;51.046;3.732;2023-07-22T09:45:30;23.60;99.90
23073;DHT22;67971;51.046;3.732;2023-07-22T09:47:56;24.60;99.90
23073;DHT22;67971;51.046;3.732;2023-07-22T09:50:24;25.20;99.90
23073;DHT22;67971;51.046;3.732;2023-07-22T09:52:54;25.30;99.90
23073;DHT22;67971;51.046;3.732;2023-07-22T09:55:30;24.80;99.90
23073;DHT22;67971;51.046;3.732;2023-07-22T09:57:57;25.40;99.90
23073;DHT22;67971;51.046;3.732;2023-07-22T10:00:25;25.80;99.90
23073;DHT22;67971;51.046;3.732;2023-07-22T10:02:56;26.30;99.90
23073;DHT22;67971;51.046;3.732;2023-07-22T10:05:22;27.50;99.90
23073;DHT22;67971;51.046;3.732;2023-07-22T10:07:51;28.80;99.90
23073;DHT22;67971;51.046;3.732;2023-07-22T10:10:21;29.40;99.90
23073;DHT22;67971;51.046;3.732;2023-07-22T10:12:48;28.00;99.90
23073;DHT22;67971;51.046;3.732;2023-07-22T10:15:15;27.60;99.90
23073;DHT22;67971;51.046;3.732;2023-07-22T10:17:43;27.80;99.90
23073;DHT22;67971;51.046;3.732;2023-07-22T10:20:10;28.60;99.90
23073;DHT22;67971;51.046;3.732;2023-07-22T10:22:44;28.20;99.40
23073;DHT22;67971;51.046;3.732;2023-07-22T10:25:15;28.00;98.80
23073;DHT22;67971;51.046;3.732;2023-07-22T10:27:41;27.80;99.00
23073;DHT22;67971;51.046;3.732;2023-07-22T10:30:15;27.20;99.50
23073;DHT22;67971;51.046;3.732;2023-07-22T10:35:13;26.70;99.50
23073;DHT22;67971;51.046;3.732;2023-07-22T10:37:44;27.60;99.40
23073;DHT22;67971;51.046;3.732;2023-07-22T10:40:28;28.30;98.20
23073;DHT22;67971;51.046;3.732;2023-07-22T10:43:04;28.10;97.60
23073;DHT22;67971;51.046;3.732;2023-07-22T10:45:36;28.20;98.20
23073;DHT22;67971;51.046;3.732;2023-07-22T10:48:12;28.10;97.80
23073;DHT22;67971;51.046;3.732;2023-07-22T10:50:48;27.90;96.90
23073;DHT22;67971;51.046;3.732;2023-07-22T10:53:29;28.60;96.70
23073;DHT22;67971;51.046;3.732;2023-07-22T11:12:17;28.30;96.10
23073;DHT22;67971;51.046;3.732;2023-07-22T11:14:51;27.70;96.40
23073;DHT22;67971;51.046;3.732;2023-07-22T11:17:27;27.10;97.00
23073;DHT22;67971;51.046;3.732;2023-07-22T11:19:55;27.40;97.10
23073;DHT22;67971;51.046;3.732;2023-07-22T11:22:21;28.30;96.40
23073;DHT22;67971;51.046;3.732;2023-07-22T11:24:46;29.60;95.20
23073;DHT22;67971;51.046;3.732;2023-07-22T11:27:12;30.10;95.30
23073;DHT22;67971;51.046;3.732;2023-07-22T11:29:38;30.40;93.90
23073;DHT22;67971;51.046;3.732;2023-07-22T11:32:04;30.40;94.40
23073;DHT22;67971;51.046;3.732;2023-07-22T11:34:30;31.20;93.30
23073;DHT22;67971;51.046;3.732;2023-07-22T11:36:56;30.70;93.40
23073;DHT22;67971;51.046;3.732;2023-07-22T11:39:26;29.30;94.40
23073;DHT22;67971;51.046;3.732;2023-07-22T11:41:53;28.10;95.30
23073;DHT22;67971;51.046;3.732;2023-07-22T11:44:23;27.40;95.90
23073;DHT22;67971;51.046;3.732;2023-07-22T11:47:00;26.50;96.60
23073;DHT22;67971;51.046;3.732;2023-07-22T11:49:41;25.80;97.20
23073;DHT22;67971;51.046;3.732;2023-07-22T11:52:16;24.80;98.40
23073;DHT22;67971;51.046;3.732;2023-07-22T11:54:46;24.00;99.30
23073;DHT22;67971;51.046;3.732;2023-07-22T11:57:23;23.70;99.90
23073;DHT22;67971;51.046;3.732;2023-07-22T11:59:53;23.40;99.90
23073;DHT22;67971;51.046;3.732;2023-07-22T12:02:27;22.90;99.90
23073;DHT22;67971;51.046;3.732;2023-07-22T12:07:30;22.20;99.90
23073;DHT22;67971;51.046;3.732;2023-07-22T12:09:57;21.90;99.90
23073;DHT22;67971;51.046;3.732;2023-07-22T12:12:36;21.70;99.90
23073;DHT22;67971;51.046;3.732;2023-07-22T12:15:15;21.50;99.90
23073;DHT22;67971;51.046;3.732;2023-07-22T12:20:10;21.60;99.90
23073;DHT22;67971;51.046;3.732;2023-07-22T12:22:36;21.70;99.90
23073;DHT22;67971;51.046;3.732;2023-07-22T12:25:01;21.80;99.90
23073;DHT22;67971;51.046;3.732;2023-07-22T12:27:27;21.70;99.90
23073;DHT22;67971;51.046;3.732;2023-07-22T12:29:53;21.90;99.90
23073;DHT22;67971;51.046;3.732;2023-07-22T12:32:18;22.20;99.90
23073;DHT22;67971;51.046;3.732;2023-07-22T12:34:44;22.50;99.90
23073;DHT22;67971;51.046;3.732;2023-07-22T12:37:10;23.00;99.90
23073;DHT22;67971;51.046;3.732;2023-07-22T12:39:35;23.20;99.90
23073;DHT22;67971;51.046;3.732;2023-07-22T12:42:01;23.50;99.90
23073;DHT22;67971;51.046;3.732;2023-07-22T12:44:26;24.00;99.90
23073;DHT22;67971;51.046;3.732;2023-07-22T12:46:52;24.70;99.90
23073;DHT22;67971;51.046;3.732;2023-07-22T12:49:19;25.30;99.90
23073;DHT22;67971;51.046;3.732;2023-07-22T12:51:44;25.30;99.90
23073;DHT22;67971;51.046;3.732;2023-07-22T12:54:10;25.20;99.90
23073;DHT22;67971;51.046;3.732;2023-07-22T12:56:35;26.00;99.90
23073;DHT22;67971;51.046;3.732;2023-07-22T12:59:02;26.70;99.90
23073;DHT22;67971;51.046;3.732;2023-07-22T13:01:27;27.30;98.90
23073;DHT22;67971;51.046;3.732;2023-07-22T13:03:53;28.20;98.20
23073;DHT22;67971;51.046;3.732;2023-07-22T13:06:18;28.30;97.50
23073;DHT22;67971;51.046;3.732;2023-07-22T13:08:44;28.40;97.50
23073;DHT22;67971;51.046;3.732;2023-07-22T13:11:10;28.00;97.50
23073;DHT22;67971;51.046;3.732;2023-07-22T13:13:36;28.00;97.40
23073;DHT22;67971;51.046;3.732;2023-07-22T13:16:01;27.60;97.50
23073;DHT22;67971;51.046;3.732;2023-07-22T13:18:27;26.60;98.60
23073;DHT22;67971;51.046;3.732;2023-07-22T13:20:53;25.80;99.00
23073;DHT22;67971;51.046;3.732;2023-07-22T13:23:18;25.20;99.70
23073;DHT22;67971;51.046;3.732;2023-07-22T13:25:44;24.40;99.90
23073;DHT22;67971;51.046;3.732;2023-07-22T13:28:10;23.80;99.90
23073;DHT22;67971;51.046;3.732;2023-07-22T13:30:35;23.40;99.90
23073;DHT22;67971;51.046;3.732;2023-07-22T13:33:01;23.20;99.90
23073;DHT22;67971;51.046;3.732;2023-07-22T13:35:27;23.20;99.90
23073;DHT22;67971;51.046;3.732;2023-07-22T13:37:53;23.10;99.90
23073;DHT22;67971;51.046;3.732;2023-07-22T13:40:18;22.90;99.90
23073;DHT22;67971;51.046;3.732;2023-07-22T13:42:44;22.80;99.90
23073;DHT22;67971;51.046;3.732;2023-07-22T13:45:10;22.90;99.90
23073;DHT22;67971;51.046;3.732;2023-07-22T13:47:36;23.00;99.90
23073;DHT22;67971;51.046;3.732;2023-07-22T13:50:01;23.10;99.90
23073;DHT22;67971;51.046;3.732;2023-07-22T13:52:27;23.60;99.90
23073;DHT22;67971;51.046;3.732;2023-07-22T13:54:53;24.00;99.90
23073;DHT22;67971;51.046;3.732;2023-07-22T13:57:18;24.90;99.90
23073;DHT22;67971;51.046;3.732;2023-07-22T13:59:44;25.50;99.90
23073;DHT22;67971;51.046;3.732;2023-07-22T14:02:10;25.60;99.80
23073;DHT22;67971;51.046;3.732;2023-07-22T14:04:36;25.30;99.90
23073;DHT22;67971;51.046;3.732;2023-07-22T14:07:01;25.50;99.80
23073;DHT22;67971;51.046;3.732;2023-07-22T14:09:27;25.20;99.90
23073;DHT22;67971;51.046;3.732;2023-07-22T14:11:53;24.70;99.90
23073;DHT22;67971;51.046;3.732;2023-07-22T14:14:18;23.80;99.90
23073;DHT22;67971;51.046;3.732;2023-07-22T14:16:45;23.60;99.90
23073;DHT22;67971;51.046;3.732;2023-07-22T14:19:10;23.60;99.90
23073;DHT22;67971;51.046;3.732;2023-07-22T14:21:36;24.00;99.90
23073;DHT22;67971;51.046;3.732;2023-07-22T14:24:01;24.50;99.70
23073;DHT22;67971;51.046;3.732;2023-07-22T14:26:27;24.80;98.70
23073;DHT22;67971;51.046;3.732;2023-07-22T14:28:53;24.80;98.90
23073;DHT22;67971;51.046;3.732;2023-07-22T14:31:18;25.20;98.60
23073;DHT22;67971;51.046;3.732;2023-07-22T14:33:44;25.40;98.30
23073;DHT22;67971;51.046;3.732;2023-07-22T14:36:10;25.20;98.40
23073;DHT22;67971;51.046;3.732;2023-07-22T14:38:35;25.20;98.00
23073;DHT22;67971;51.046;3.732;2023-07-22T14:41:01;25.40;98.00
23073;DHT22;67971;51.046;3.732;2023-07-22T14:43:28;25.30;98.40
23073;DHT22;67971;51.046;3.732;2023-07-22T14:45:54;25.50;98.50
23073;DHT22;67971;51.046;3.732;2023-07-22T14:48:19;25.40;98.90
23073;DHT22;67971;51.046;3.732;2023-07-22T14:50:45;25.40;98.70
23073;DHT22;67971;51.046;3.732;2023-07-22T14:53:11;24.80;99.80
23073;DHT22;67971;51.046;3.732;2023-07-22T14:55:36;24.30;99.90
23073;DHT22;67971;51.046;3.732;2023-07-22T14:58:02;23.90;99.90
23073;DHT22;67971;51.046;3.732;2023-07-22T15:00:27;23.50;99.90
23073;DHT22;67971;51.046;3.732;2023-07-22T15:02:53;23.20;99.90
23073;DHT22;67971;51.046;3.732;2023-07-22T15:05:19;22.80;99.90
23073;DHT22;67971;51.046;3.732;2023-07-22T15:07:44;22.60;99.90
23073;DHT22;67971;51.046;3.732;2023-07-22T15:10:10;22.70;99.90
23073;DHT22;67971;51.046;3.732;2023-07-22T15:12:36;22.70;99.90
23073;DHT22;67971;51.046;3.732;2023-07-22T15:15:02;22.50;99.90
23073;DHT22;67971;51.046;3.732;2023-07-22T15:17:28;22.60;99.90
23073;DHT22;67971;51.046;3.732;2023-07-22T15:19:57;22.50;99.90
23073;DHT22;67971;51.046;3.732;2023-07-22T15:22:22;22.50;99.90
23073;DHT22;67971;51.046;3.732;2023-07-22T15:24:48;22.20;99.90
23073;DHT22;67971;51.046;3.732;2023-07-22T15:27:13;22.00;99.90
23073;DHT22;67971;51.046;3.732;2023-07-22T15:29:40;22.10;99.90
23073;DHT22;67971;51.046;3.732;2023-07-22T15:32:06;22.20;99.90
23073;DHT22;67971;51.046;3.732;2023-07-22T15:34:32;22.20;99.90
23073;DHT22;67971;51.046;3.732;2023-07-22T15:36:58;22.30;99.90
23073;DHT22;67971;51.046;3.732;2023-07-22T15:39:25;22.40;99.90
23073;DHT22;67971;51.046;3.732;2023-07-22T15:41:50;22.50;99.90
23073;DHT22;67971;51.046;3.732;2023-07-22T15:46:42;22.30;99.90
23073;DHT22;67971;51.046;3.732;2023-07-22T15:49:07;22.40;99.90
23073;DHT22;67971;51.046;3.732;2023-07-22T15:51:33;22.40;99.90
23073;DHT22;67971;51.046;3.732;2023-07-22T15:53:58;22.40;99.90
23073;DHT22;67971;51.046;3.732;2023-07-22T15:56:24;22.40;99.90